Nearby METAR Reports

 

KSJC - San Jose, California, USA
Distance from station: NE 14km
Updated: 14/06/2024 04:53
Clear
Clear
 Wind from SSE
Wind: SSE 15 km/h
Temperature: 12°C
Dew Point: 9°C
Humidity: 82%
Barometer: 1016.6 hPa
Clouds: Clear
Visibility: 16 km
2024/06/14 11:53 KSJC 141153Z AUTO 15008KT 10SM CLR 12/09 A3002 RMK AO2 SLP164 T01220089 10150 20122 55002
KNUQ - Moffett Nas/Mtn, California, USA
Distance from station: N 14km
Updated: 14/06/2024 05:35
Clear
Clear
 Wind from SE
Wind: SE 7 km/h
Temperature: 11°C
Dew Point: 9°C
Humidity: 88%
Barometer: 1016.6 hPa
Clouds: Clear
Visibility: 13 km
2024/06/14 12:35 KNUQ 141235Z AUTO 14004KT 8SM CLR 11/09 A3002 RMK AO2
 
KPAO - Palo Alto, California, USA
Distance from station: NNW 23km
Updated: 13/06/2024 20:47
NOT Current
Clear
Clear
 Wind from NW
Wind: NW 19 km/h
Temperature: 14°C
Dew Point: 8°C
Humidity: 67%
Barometer: 1016.9 hPa
Clouds: Clear
Visibility: 16 km
2024/06/14 03:47 KPAO 140347Z 32010KT 10SM SKC 14/08 A3003 RMK LAST
KRHV - San Jose/Reid, California, USA
Distance from station: ENE 19km
Updated: 13/06/2024 21:55
NOT Current
Clear
Clear
 Wind from WNW
Wind: WNW 7 km/h
Temperature: 15°C
Dew Point: 9°C
Humidity: 68%
Barometer: 1017.6 hPa
Clouds: Clear
Visibility: 16 km
2024/06/14 04:55 KRHV 140455Z 30004KT 10SM SKC 15/09 A3005 RMK LAST
 
KOAK - Oakland, California, USA
Distance from station: NNW 50km
Updated: 14/06/2024 04:53
Few Clouds
Few Clouds
 Wind from WSW
Wind: WSW 20 km/h
Temperature: 13°C
Dew Point: 11°C
Humidity: 88%
Barometer: 1016.6 hPa
Clouds: Few Clouds
Visibility: 16 km
Cloud details: Few Clouds 366 m
2024/06/14 11:53 KOAK 141153Z 25011KT 10SM FEW012 13/11 A3002 RMK AO2 SLP163 T01330106 10139 20133 55004
KSQL - San Carlos Airpo, California, USA
Distance from station: NW 34km
Updated: 14/06/2024 05:35
Clear
Clear
 Wind from calm
Wind: Calm
Temperature: 12°C
Dew Point: 9°C
Humidity: 82%
Barometer: 1016.9 hPa
Clouds: Clear
Visibility: 11 km
2024/06/14 12:35 KSQL 141235Z AUTO 00000KT 7SM CLR 12/09 A3003 RMK AO2
 
KSFO - San Francisco, California, USA
Distance from station: NW 49km
Updated: 14/06/2024 04:56
Few Clouds
Few Clouds
 Wind from NW
Wind: NW 7 km/h
Temperature: 11°C
Dew Point: 8°C
Humidity: 82%
Barometer: 1016.3 hPa
Clouds: Few Clouds
Visibility: 16 km
Cloud details: Few Clouds 274 m
2024/06/14 11:56 KSFO 141156Z 31004KT 10SM FEW009 11/08 A3001 RMK AO2 SLP163 T01110083 10122 20111 55004
KE16 - San Martin, California, USA
Distance from station: ESE 43km
Updated: 14/06/2024 05:35
Mist, Overcast
Mist, Overcast
 Wind from ESE
Wind: ESE 11 km/h
Temperature: 11°C
Dew Point: 9°C
Humidity: 88%
Barometer: 1018.3 hPa
Summary: Mist
Clouds: Overcast
Visibility: 10 km
Cloud details: Overcast 183 m
2024/06/14 12:35 KE16 141235Z AUTO 11006KT 6SM BR OVC006 11/09 A3007 RMK AO2 PWINO PNO
 
KWVI - Watsonville, California, USA
Distance from station: SSE 44km
Updated: 14/06/2024 04:53
Overcast
Overcast
 Wind from N
Wind: N 6 km/h
Temperature: 11°C
Dew Point: 9°C
Humidity: 88%
Barometer: 1017.6 hPa
Clouds: Overcast
Visibility: 13 km
Cloud details: Overcast 152 m
2024/06/14 11:53 KWVI 141153Z AUTO 35003KT 8SM OVC005 11/09 A3005 RMK AO2 SLP175 T01110094 10117 20111 55001
KHAF - Half Moon Bay, California, USA
Distance from station: WNW 50km
Updated: 14/06/2024 05:35
Mist, Mostly cloudy
Mist, Mostly cloudy
 Wind from calm
Wind: Calm
Temperature: 10°C
Dew Point: 10°C
Humidity: 100%
Barometer: 1017.6 hPa
Summary: Mist
Clouds: Mostly cloudy
Visibility: 6 km
Cloud details: Mostly cloudy 366 m
2024/06/14 12:35 KHAF 141235Z AUTO 00000KT 4SM BR BKN012 10/10 A3005 RMK AO2
 
KHWD - Hayward, California, USA
Distance from station: N 44km
Updated: 14/06/2024 04:54
Overcast
Overcast
 Wind from WSW
Wind: WSW 9 km/h
Temperature: 14°C
Dew Point: 10°C
Humidity: 77%
Barometer: 1016.3 hPa
Clouds: Overcast
Visibility: 16 km
Cloud details: Overcast 457 m
2024/06/14 11:54 KHWD 141154Z AUTO 25005KT 10SM OVC015 14/10 A3001 RMK AO2 SLP172 T01390100 10139 20128 55003
KLVK - Livermore, California, USA
Distance from station: NNE 51km
Updated: 14/06/2024 04:53
Clear
Clear
 Wind from calm
Wind: Calm
Temperature: 11°C
Dew Point: 9°C
Humidity: 88%
Barometer: 1015.9 hPa
Clouds: Clear
Visibility: 11 km
2024/06/14 11:53 KLVK 141153Z AUTO 00000KT 7SM CLR 11/09 A3000 RMK AO2 SLP154 60000 T01110089 10122 20106 55002